createdAt,value
2018-06-04T15:19:17.829Z,9.47
2018-06-04T15:21:45.282Z,16.20
2018-06-04T15:24:12.742Z,14.87
2018-06-04T15:26:40.297Z,17.47
2018-06-04T15:29:07.766Z,21.63
2018-06-04T15:31:35.325Z,18.30
2018-06-04T15:34:02.801Z,19.00
2018-06-04T15:36:30.424Z,24.13
2018-06-04T15:38:57.917Z,16.60
2018-06-04T15:41:25.366Z,17.87
2018-06-04T15:43:52.847Z,17.40
2018-06-04T15:46:20.301Z,25.73
2018-06-04T15:48:47.729Z,21.40
2018-06-04T15:51:15.177Z,23.80
2018-06-04T15:53:42.623Z,22.00
2018-06-04T15:56:10.838Z,28.00
2018-06-04T15:58:38.278Z,22.47
2018-06-04T16:01:05.782Z,24.27
2018-06-04T16:03:33.216Z,19.40
2018-06-04T16:06:00.674Z,21.07
2018-06-04T16:08:28.161Z,21.20
2018-06-04T16:10:55.601Z,24.77
2018-06-04T16:13:23.090Z,19.07
2018-06-04T16:15:50.530Z,21.30
2018-06-04T16:18:17.981Z,25.33
2018-06-04T16:20:45.426Z,17.27
2018-06-04T16:23:13.642Z,20.13
2018-06-04T16:25:41.161Z,24.07
2018-06-04T16:28:08.673Z,26.33
2018-06-04T16:30:36.133Z,21.47
2018-06-04T16:33:03.609Z,18.13
2018-06-04T16:35:31.066Z,19.63
2018-06-04T16:37:58.512Z,20.37
2018-06-04T16:40:25.949Z,23.23
2018-06-04T16:42:53.514Z,22.57
2018-06-04T16:45:20.949Z,20.10
2018-06-04T16:47:49.161Z,20.20
2018-06-04T16:50:16.778Z,24.60
2018-06-04T16:52:44.101Z,21.27
2018-06-04T16:55:11.569Z,19.97
2018-06-04T16:57:39.024Z,22.10
2018-06-04T17:00:06.510Z,19.27
2018-06-04T17:02:33.953Z,22.47
2018-06-04T17:05:01.413Z,21.53
2018-06-04T17:07:28.869Z,22.10
2018-06-04T17:09:56.306Z,15.77
2018-06-04T17:12:23.757Z,18.90
2018-06-04T17:14:51.965Z,17.60
2018-06-04T17:17:19.451Z,21.10
2018-06-04T17:19:46.898Z,16.10
2018-06-04T17:22:14.365Z,16.50
2018-06-04T17:24:41.828Z,15.30
2018-06-04T17:27:09.286Z,17.03
2018-06-04T17:29:36.729Z,22.23
2018-06-04T17:32:04.197Z,18.07
2018-06-04T17:34:31.649Z,17.83
2018-06-04T17:36:59.116Z,24.57
2018-06-04T17:39:26.630Z,17.23
2018-06-04T17:41:54.070Z,20.87
2018-06-04T17:44:21.700Z,16.57
2018-06-04T17:46:49.189Z,23.10
2018-06-04T17:49:16.628Z,15.50
2018-06-04T17:51:44.069Z,25.23
2018-06-04T17:54:11.517Z,17.83
2018-06-04T17:56:40.482Z,14.60
2018-06-04T17:59:08.025Z,14.03
2018-06-04T18:01:35.510Z,17.33
2018-06-04T18:04:03.066Z,15.27
2018-06-04T18:06:30.505Z,16.57
2018-06-04T18:08:57.953Z,17.70
2018-06-04T18:11:25.440Z,13.90
2018-06-04T18:13:52.893Z,17.20
2018-06-04T18:16:20.358Z,14.83
2018-06-04T18:18:47.815Z,13.50
2018-06-04T18:21:15.258Z,16.13
2018-06-04T18:23:42.717Z,13.13
2018-06-04T18:26:10.154Z,13.23
2018-06-04T18:28:38.374Z,13.50
2018-06-04T18:31:05.816Z,13.70
2018-06-04T18:33:33.265Z,14.30
2018-06-04T18:36:00.710Z,12.50
2018-06-04T18:38:28.922Z,15.93
2018-06-04T18:40:56.361Z,12.90
2018-06-04T18:43:24.573Z,13.87
2018-06-04T18:45:52.021Z,13.67
2018-06-04T18:48:19.471Z,16.50
2018-06-04T18:50:46.922Z,14.53
2018-06-04T18:53:15.146Z,13.13
2018-06-04T18:55:42.609Z,15.17
2018-06-04T18:58:10.089Z,14.20
2018-06-04T19:00:37.515Z,14.10
2018-06-04T19:03:05.002Z,14.60
2018-06-04T19:05:32.553Z,15.43
2018-06-04T19:08:00.021Z,17.47
2018-06-04T19:10:27.458Z,15.10
2018-06-04T19:12:54.941Z,13.70
2018-06-04T19:15:22.407Z,12.93
2018-06-04T19:17:49.869Z,14.00
2018-06-04T19:20:17.346Z,15.07
2018-06-04T19:22:44.891Z,16.80
2018-06-04T19:25:12.337Z,14.83
2018-06-04T19:27:39.790Z,15.33
2018-06-04T19:30:07.352Z,13.67
2018-06-04T19:32:34.834Z,15.17
2018-06-04T19:35:02.370Z,15.90
2018-06-04T19:37:29.810Z,12.73
2018-06-04T19:39:58.029Z,16.67
2018-06-04T19:42:25.471Z,14.00
2018-06-04T19:44:52.926Z,17.30
2018-06-04T19:47:21.146Z,14.70
2018-06-04T19:49:48.598Z,17.90
2018-06-04T19:52:16.089Z,14.23
2018-06-04T19:54:43.630Z,13.30
2018-06-04T19:57:11.168Z,14.13
2018-06-04T19:59:38.626Z,13.50
2018-06-04T20:02:06.122Z,14.10
2018-06-04T20:04:33.655Z,13.73
2018-06-04T20:07:01.144Z,11.63
2018-06-04T20:09:28.684Z,12.87
2018-06-04T20:11:56.145Z,11.60
2018-06-04T20:14:24.350Z,11.67
2018-06-04T20:16:51.801Z,11.40
2018-06-04T20:19:19.274Z,14.27
2018-06-04T20:21:46.793Z,12.40
2018-06-04T20:24:14.299Z,12.53
2018-06-04T20:26:41.754Z,14.00
2018-06-04T20:29:09.228Z,11.33
2018-06-04T20:31:36.653Z,13.43
2018-06-04T20:34:04.116Z,14.57
2018-06-04T20:36:31.631Z,11.10
2018-06-04T20:38:59.065Z,9.87
2018-06-04T20:41:26.501Z,11.63
2018-06-04T20:43:53.975Z,12.40
2018-06-04T20:46:23.600Z,18.57
2018-06-04T20:48:53.632Z,16.67
2018-06-04T20:51:22.609Z,18.73
2018-06-04T20:53:50.591Z,17.83
2018-06-04T20:56:18.045Z,17.67
2018-06-04T20:58:45.492Z,16.93
2018-06-04T21:01:12.944Z,21.93
2018-06-04T21:03:40.384Z,21.30
2018-06-04T21:06:08.615Z,22.37
2018-06-04T21:08:36.069Z,21.00
2018-06-04T21:11:03.638Z,23.60
2018-06-04T21:13:31.082Z,20.80
2018-06-04T21:15:58.558Z,22.03
2018-06-04T21:18:26.021Z,27.97
2018-06-04T21:20:54.717Z,20.40
2018-06-04T21:23:22.137Z,21.10
2018-06-04T21:25:49.589Z,21.77
2018-06-04T21:28:17.034Z,21.83
2018-06-04T21:30:45.255Z,23.83
2018-06-04T21:33:12.702Z,22.77
2018-06-04T21:35:40.154Z,22.00
2018-06-04T21:38:07.610Z,23.60
2018-06-04T21:40:35.826Z,23.00
2018-06-04T21:43:03.261Z,23.60
2018-06-04T21:45:30.715Z,24.57
2018-06-04T21:47:58.159Z,25.50
2018-06-04T21:50:26.502Z,24.23
2018-06-04T21:52:53.942Z,24.30
2018-06-04T21:55:21.394Z,23.00
2018-06-04T21:57:48.833Z,22.80
2018-06-04T22:00:17.050Z,23.73
2018-06-04T22:02:44.485Z,24.57
2018-06-04T22:05:11.950Z,25.83
2018-06-04T22:07:39.377Z,23.73
2018-06-04T22:10:06.825Z,23.20
2018-06-04T22:12:34.269Z,25.47
2018-06-04T22:15:01.718Z,27.73
2018-06-04T22:17:29.162Z,23.53
2018-06-04T22:19:56.614Z,24.30
2018-06-04T22:22:24.054Z,25.97
2018-06-04T22:24:52.273Z,26.50
2018-06-04T22:27:19.709Z,30.07
2018-06-04T22:29:47.162Z,23.27
2018-06-04T22:32:15.373Z,27.13
2018-06-04T22:34:42.817Z,24.00
2018-06-04T22:37:10.270Z,29.40
2018-06-04T22:39:37.715Z,24.40
2018-06-04T22:42:05.930Z,28.20
2018-06-04T22:44:33.366Z,24.70
2018-06-04T22:47:01.582Z,25.20
2018-06-04T22:49:29.022Z,25.83
2018-06-04T22:51:56.469Z,26.53
2018-06-04T22:54:23.914Z,27.33
2018-06-04T22:56:52.130Z,28.80
2018-06-04T22:59:19.571Z,25.57
2018-06-04T23:01:47.790Z,28.10
2018-06-04T23:04:15.229Z,27.13
2018-06-04T23:06:42.677Z,25.70
2018-06-04T23:09:10.126Z,28.03
2018-06-04T23:11:38.340Z,26.07
2018-06-04T23:14:05.782Z,23.63
2018-06-04T23:16:33.230Z,26.13
2018-06-04T23:19:02.130Z,25.50
2018-06-04T23:21:29.591Z,23.13
2018-06-04T23:23:57.791Z,26.50
2018-06-04T23:26:25.242Z,26.17
2018-06-04T23:28:52.681Z,24.17
2018-06-04T23:31:20.893Z,26.73
2018-06-04T23:33:48.338Z,25.47
2018-06-04T23:36:15.789Z,22.90
2018-06-04T23:38:43.997Z,27.30
2018-06-04T23:41:11.447Z,24.97
2018-06-04T23:43:38.892Z,26.03
2018-06-04T23:46:07.103Z,26.00
2018-06-04T23:48:34.541Z,25.63
2018-06-04T23:51:01.990Z,25.17
2018-06-04T23:53:30.193Z,23.70
2018-06-04T23:55:57.642Z,25.20
2018-06-04T23:58:25.099Z,26.20
